Time;durP1;ratioP1;P1;durP2;ratioP2;P2;SDS_P1;SDS_P2;PMS_P1;PMS_P2;Temp;Humidity;BMP_temperature;BMP_pressure;BME280_temperature;BME280_humidity;BME280_pressure;Samples;Min_cycle;Max_cycle;Signal;HPM_P1;HPM_P2
2024/01/28 00:01:35;;;;;;;1.50;1.40;;;;;;;4.82;nan;60178.63;5034389;28;20175;-68
2024/01/28 00:04:01;;;;;;;1.50;1.40;;;;;;;4.56;nan;60151.53;5034210;28;20183;-68
2024/01/28 00:06:26;;;;;;;1.30;1.30;;;;;;;4.82;nan;60178.63;5034305;28;20649;-69
2024/01/28 00:08:52;;;;;;;1.43;1.33;;;;;;;4.94;nan;60168.16;5034147;28;20606;-70
2024/01/28 00:11:17;;;;;;;1.20;1.20;;;;;;;4.94;nan;60147.91;5034096;28;20465;-68
2024/01/28 00:13:43;;;;;;;1.10;1.10;;;;;;;4.59;nan;60258.56;5042113;28;20190;-69
2024/01/28 00:16:15;;;;;;;1.23;1.23;;;;;;;4.92;nan;60217.06;5033900;28;20170;-70
2024/01/28 00:18:41;;;;;;;1.10;1.10;;;;;;;4.61;nan;60241.13;5033942;28;20198;-68
2024/01/28 00:21:06;;;;;;;1.30;1.30;;;;;;;4.50;nan;60211.13;5033760;28;20647;-69
2024/01/28 00:23:31;;;;;;;1.67;1.57;;;;;;;4.84;nan;60172.72;5034039;28;20176;-70
2024/01/28 00:25:57;;;;;;;1.10;1.10;;;;;;;4.66;nan;60416.16;5033977;28;20179;-68
2024/01/28 00:28:23;;;;;;;1.00;1.00;;;;;;;4.56;nan;60095.91;5033808;28;20281;-70
2024/01/28 00:30:48;;;;;;;1.50;1.40;;;;;;;4.60;nan;60250.13;5034103;28;20171;-69
2024/01/28 00:33:14;;;;;;;1.10;1.10;;;;;;;4.30;nan;60247.44;5032286;28;20563;-71
2024/01/28 00:35:39;;;;;;;1.13;1.13;;;;;;;4.46;nan;60274.91;5033468;28;20249;-69
2024/01/28 00:38:05;;;;;;;1.20;1.20;;;;;;;4.17;nan;60230.38;5032174;28;20175;-69
2024/01/28 00:40:30;;;;;;;1.20;1.20;;;;;;;4.24;nan;60091.09;5033509;28;20263;-69
2024/01/28 00:42:56;;;;;;;1.40;1.33;;;;;;;4.30;nan;60100.34;5033655;28;20175;-72
2024/01/28 00:45:21;;;;;;;1.40;1.30;;;;;;;4.24;nan;60192.19;5033173;28;20179;-68
2024/01/28 00:47:47;;;;;;;1.10;1.10;;;;;;;4.09;nan;60170.91;5031739;28;20210;-68
2024/01/28 00:50:12;;;;;;;0.97;0.97;;;;;;;4.37;nan;60183.97;5033567;28;20262;-68
2024/01/28 00:52:37;;;;;;;1.60;1.50;;;;;;;4.30;nan;60234.81;5033304;28;20704;-69
2024/01/28 00:55:04;;;;;;;1.30;1.30;;;;;;;4.49;nan;60201.84;5033487;28;20646;-69
2024/01/28 00:57:30;;;;;;;1.10;1.10;;;;;;;4.42;nan;60098.56;5032316;28;20180;-68
2024/01/28 00:59:55;;;;;;;1.57;1.47;;;;;;;4.17;nan;60025.16;5033240;28;20657;-70
2024/01/28 01:02:20;;;;;;;1.60;1.50;;;;;;;4.11;nan;60125.16;5033114;28;20233;-71
2024/01/28 01:04:46;;;;;;;1.43;1.33;;;;;;;4.44;nan;60424.91;5033621;28;20179;-68
2024/01/28 01:07:11;;;;;;;1.50;1.40;;;;;;;4.45;nan;60281.94;5033569;28;20281;-69
2024/01/28 01:09:36;;;;;;;1.10;1.10;;;;;;;4.39;nan;60239.28;5033308;28;20226;-68
2024/01/28 01:12:04;;;;;;;1.10;1.10;;;;;;;4.19;nan;60229.53;5032960;28;20548;-69
2024/01/28 01:14:35;;;;;;;1.13;1.13;;;;;;;4.35;nan;60260.63;5033010;28;20176;-67
2024/01/28 01:17:06;;;;;;;1.23;1.17;;;;;;;4.49;nan;60138.66;5031701;28;20531;-69
2024/01/28 01:19:32;;;;;;;1.27;1.27;;;;;;;4.01;nan;60111.47;5041267;28;20171;-70
2024/01/28 01:21:57;;;;;;;1.00;1.00;;;;;;;4.46;nan;60135.88;5033491;28;20619;-68
2024/01/28 01:24:24;;;;;;;1.27;1.27;;;;;;;4.25;nan;60109.91;5032884;28;20643;-68
2024/01/28 01:26:51;;;;;;;1.77;1.67;;;;;;;4.35;nan;60159.53;5032649;28;20225;-68
2024/01/28 01:29:16;;;;;;;1.37;1.30;;;;;;;4.38;nan;60140.16;5032644;28;20210;-69
2024/01/28 01:31:42;;;;;;;1.40;1.30;;;;;;;4.42;nan;60169.88;5032278;28;20198;-70
2024/01/28 01:34:07;;;;;;;1.30;1.30;;;;;;;4.37;nan;60247.72;5032208;28;20219;-69
2024/01/28 01:36:33;;;;;;;1.00;1.00;;;;;;;4.23;nan;60216.88;5032530;28;20179;-69
2024/01/28 01:38:58;;;;;;;1.37;1.33;;;;;;;4.17;nan;60323.88;5032836;28;20178;-69
2024/01/28 01:41:25;;;;;;;1.20;1.20;;;;;;;4.17;nan;60207.66;5032928;28;20245;-69
2024/01/28 01:43:52;;;;;;;1.30;1.30;;;;;;;4.18;nan;60258.75;5032091;28;20503;-69
2024/01/28 01:46:18;;;;;;;3.70;2.93;;;;;;;4.35;nan;60151.94;5032387;28;20263;-68
2024/01/28 01:48:45;;;;;;;1.50;1.40;;;;;;;4.30;nan;60102.84;5032355;28;20175;-70
2024/01/28 01:51:11;;;;;;;1.27;1.27;;;;;;;4.25;nan;60155.41;5032578;28;20164;-68
2024/01/28 01:53:38;;;;;;;1.37;1.33;;;;;;;3.81;nan;60079.03;5032230;28;20266;-70
2024/01/28 01:56:05;;;;;;;1.40;1.30;;;;;;;4.05;nan;60206.88;5032377;28;20175;-68
2024/01/28 01:58:31;;;;;;;1.20;1.20;;;;;;;4.30;nan;60207.00;5032288;28;20277;-70
2024/01/28 02:00:57;;;;;;;1.10;1.10;;;;;;;4.04;nan;60177.97;5031949;28;20615;-70
2024/01/28 02:03:23;;;;;;;1.50;1.40;;;;;;;3.92;nan;60203.00;5030753;28;20179;-69
2024/01/28 02:05:48;;;;;;;1.10;1.10;;;;;;;4.19;nan;60113.31;5031797;28;20171;-69
2024/01/28 02:08:13;;;;;;;1.10;1.10;;;;;;;4.09;nan;60193.09;5030718;28;20234;-67
2024/01/28 02:10:40;;;;;;;1.37;1.27;;;;;;;3.97;nan;60200.47;5031642;28;20176;-70
2024/01/28 02:13:05;;;;;;;1.20;1.20;;;;;;;4.14;nan;60067.88;5031618;28;20175;-70
2024/01/28 02:15:40;;;;;;;1.20;1.20;;;;;;;4.15;nan;60118.97;5031617;28;20276;-68
2024/01/28 02:18:05;;;;;;;1.10;1.10;;;;;;;3.84;nan;60180.84;5032146;28;20536;-68
2024/01/28 02:20:31;;;;;;;1.10;1.10;;;;;;;4.03;nan;60092.91;5032214;28;20178;-69
2024/01/28 02:22:56;;;;;;;1.10;1.10;;;;;;;3.83;nan;60157.59;5031883;28;20195;-68
2024/01/28 02:25:22;;;;;;;1.13;1.13;;;;;;;3.90;nan;60109.28;5037188;28;20186;-67
2024/01/28 02:27:47;;;;;;;1.50;1.40;;;;;;;3.60;nan;60123.75;5034076;28;20627;-70
2024/01/28 02:30:14;;;;;;;1.27;1.27;;;;;;;3.74;nan;60150.06;5032032;28;20183;-67
2024/01/28 02:32:47;;;;;;;1.20;1.20;;;;;;;3.73;nan;60037.84;5031751;28;20267;-70
2024/01/28 02:35:13;;;;;;;1.47;1.40;;;;;;;3.77;nan;60112.44;5031179;28;20230;-70
2024/01/28 02:37:38;;;;;;;1.47;1.37;;;;;;;3.61;nan;60148.13;5031506;28;20301;-70
2024/01/28 02:40:04;;;;;;;1.90;1.80;;;;;;;3.86;nan;60102.28;5031650;28;20303;-69
2024/01/28 02:42:30;;;;;;;1.00;1.00;;;;;;;3.49;nan;60162.50;5031262;28;20171;-68
2024/01/28 02:44:55;;;;;;;1.20;1.20;;;;;;;3.84;nan;60148.03;5031319;28;20175;-68
2024/01/28 02:47:20;;;;;;;1.17;1.17;;;;;;;3.85;nan;60190.13;5031065;28;20260;-69
2024/01/28 02:49:46;;;;;;;1.50;1.40;;;;;;;3.90;nan;60061.28;5031360;28;20223;-67
2024/01/28 02:52:11;;;;;;;1.30;1.20;;;;;;;3.69;nan;60103.50;5031304;28;20172;-70
2024/01/28 02:54:36;;;;;;;1.00;1.00;;;;;;;3.83;nan;60165.16;5030675;28;20661;-67
2024/01/28 02:57:02;;;;;;;1.20;1.20;;;;;;;3.65;nan;60023.88;5030799;28;20265;-67
2024/01/28 02:59:27;;;;;;;1.47;1.37;;;;;;;3.71;nan;60130.97;5031472;28;20555;-68
2024/01/28 03:01:53;;;;;;;7.27;1.63;;;;;;;3.39;nan;59972.72;5031117;28;20673;-69
2024/01/28 03:04:18;;;;;;;1.10;1.10;;;;;;;3.50;nan;60105.56;5031185;28;20171;-69
2024/01/28 03:06:44;;;;;;;1.10;1.10;;;;;;;3.39;nan;60121.59;5031195;28;20211;-68
2024/01/28 03:09:09;;;;;;;1.17;1.13;;;;;;;3.41;nan;60191.41;5030866;28;20179;-69
2024/01/28 03:11:35;;;;;;;1.07;1.07;;;;;;;3.51;nan;60101.66;5030939;28;20270;-70
2024/01/28 03:14:01;;;;;;;1.80;1.70;;;;;;;3.37;nan;60185.00;5031160;28;20186;-70
2024/01/28 03:16:26;;;;;;;0.97;0.97;;;;;;;3.54;nan;60145.38;5031188;28;20206;-70
2024/01/28 03:18:52;;;;;;;1.20;1.20;;;;;;;3.36;nan;60146.03;5030859;28;20398;-70
2024/01/28 03:21:17;;;;;;;1.20;1.20;;;;;;;3.29;nan;60176.03;5032277;28;20661;-68
2024/01/28 03:23:42;;;;;;;1.53;1.43;;;;;;;3.19;nan;60008.44;5035314;28;20187;-69
2024/01/28 03:26:11;;;;;;;1.10;1.10;;;;;;;3.32;nan;60080.44;5033569;28;20186;-68
2024/01/28 03:28:37;;;;;;;1.10;1.10;;;;;;;3.32;nan;60088.00;5034749;28;20203;-68
2024/01/28 03:31:02;;;;;;;1.00;1.00;;;;;;;3.26;nan;60093.91;5035043;28;20175;-68
2024/01/28 03:33:27;;;;;;;1.10;1.10;;;;;;;3.50;nan;60075.84;5042602;28;20171;-69
2024/01/28 03:35:53;;;;;;;1.23;1.23;;;;;;;3.23;nan;59977.06;5035090;28;20644;-70
2024/01/28 03:38:18;;;;;;;1.20;1.20;;;;;;;3.17;nan;60088.91;5034973;28;20214;-70
2024/01/28 03:40:44;;;;;;;1.40;1.30;;;;;;;3.25;nan;60060.56;5034434;28;20183;-67
2024/01/28 03:43:09;;;;;;;1.30;1.30;;;;;;;3.04;nan;60001.81;5034745;28;20198;-69
2024/01/28 03:45:35;;;;;;;1.20;1.20;;;;;;;3.09;nan;60060.38;5034508;28;20217;-69
2024/01/28 03:48:00;;;;;;;1.20;1.20;;;;;;;3.23;nan;60111.31;5034411;28;20211;-67
2024/01/28 03:50:26;;;;;;;1.53;1.43;;;;;;;3.41;nan;60017.31;5035074;28;20183;-67
2024/01/28 03:52:51;;;;;;;1.43;1.33;;;;;;;3.29;nan;59999.41;5034634;28;20179;-69
2024/01/28 03:55:17;;;;;;;1.30;1.30;;;;;;;3.10;nan;59968.16;5034505;28;20175;-71
2024/01/28 03:57:43;;;;;;;1.10;1.10;;;;;;;3.32;nan;60029.97;5034341;28;20231;-68
2024/01/28 04:00:11;;;;;;;1.30;1.30;;;;;;;2.94;nan;60076.41;5034392;28;20172;-67
2024/01/28 04:02:38;;;;;;;1.20;1.20;;;;;;;3.00;nan;60091.22;5034539;28;20176;-69
2024/01/28 04:05:04;;;;;;;1.20;1.20;;;;;;;3.27;nan;60095.03;5034118;28;20175;-68
2024/01/28 04:07:29;;;;;;;1.63;1.43;;;;;;;3.05;nan;59960.06;5033843;28;20195;-70
2024/01/28 04:09:55;;;;;;;1.63;1.53;;;;;;;3.31;nan;60107.06;5034092;28;20179;-69
2024/01/28 04:12:20;;;;;;;1.20;1.20;;;;;;;3.26;nan;60270.53;5034205;28;20171;-70
2024/01/28 04:14:46;;;;;;;1.20;1.20;;;;;;;3.36;nan;60089.94;5034019;28;20179;-69
2024/01/28 04:17:11;;;;;;;1.30;1.30;;;;;;;3.36;nan;60115.19;5034108;28;20211;-69
2024/01/28 04:19:36;;;;;;;1.47;1.40;;;;;;;3.44;nan;60119.06;5034015;28;20179;-68
2024/01/28 04:22:02;;;;;;;1.30;1.30;;;;;;;3.44;nan;60081.22;5033877;28;20615;-67
2024/01/28 04:24:27;;;;;;;1.10;1.10;;;;;;;3.53;nan;60007.97;5033738;28;20175;-68
2024/01/28 04:26:53;;;;;;;1.80;1.70;;;;;;;3.47;nan;60115.41;5033260;28;20211;-69
2024/01/28 04:29:19;;;;;;;1.30;1.30;;;;;;;3.32;nan;60118.84;5034132;28;20631;-71
2024/01/28 04:31:44;;;;;;;1.30;1.30;;;;;;;3.45;nan;60065.22;5033692;28;20180;-70
2024/01/28 04:34:10;;;;;;;1.50;1.40;;;;;;;3.48;nan;60093.25;5034290;28;20227;-69
2024/01/28 04:36:36;;;;;;;1.13;1.13;;;;;;;3.37;nan;60103.69;5033791;28;20171;-70
2024/01/28 04:39:02;;;;;;;1.50;1.40;;;;;;;3.28;nan;59997.75;5039011;28;20175;-66
2024/01/28 04:41:28;;;;;;;1.20;1.20;;;;;;;3.59;nan;60041.88;5036882;28;20179;-69
2024/01/28 04:43:54;;;;;;;1.13;1.13;;;;;;;3.42;nan;60183.00;5034172;28;20175;-70
2024/01/28 04:46:20;;;;;;;1.30;1.30;;;;;;;3.56;nan;60127.97;5033654;28;20184;-68
2024/01/28 04:48:45;;;;;;;1.20;1.20;;;;;;;3.66;nan;60032.00;5033600;28;20191;-69
2024/01/28 04:51:11;;;;;;;1.40;1.30;;;;;;;3.45;nan;60087.38;5034245;28;20167;-69
2024/01/28 04:53:36;;;;;;;1.20;1.20;;;;;;;3.26;nan;60023.84;5032007;28;20669;-67
2024/01/28 04:56:02;;;;;;;1.20;1.20;;;;;;;3.43;nan;60015.03;5033464;28;20284;-69
2024/01/28 04:58:27;;;;;;;1.17;1.17;;;;;;;3.27;nan;60107.66;5033441;28;20670;-67
2024/01/28 05:00:54;;;;;;;1.20;1.20;;;;;;;3.33;nan;60119.94;5033626;28;20186;-67
2024/01/28 05:03:20;;;;;;;1.17;1.17;;;;;;;3.24;nan;59988.78;5033314;28;20172;-71
2024/01/28 05:05:46;;;;;;;1.33;1.30;;;;;;;3.20;nan;60105.44;5033009;28;20182;-70
2024/01/28 05:08:11;;;;;;;1.60;1.50;;;;;;;3.12;nan;60048.56;5032916;28;20286;-67
2024/01/28 05:10:38;;;;;;;1.20;1.20;;;;;;;3.14;nan;60088.09;5032787;28;20501;-68
2024/01/28 05:13:04;;;;;;;1.13;1.13;;;;;;;3.39;nan;60047.88;5032998;28;20180;-70
2024/01/28 05:15:29;;;;;;;1.80;1.70;;;;;;;3.33;nan;60011.44;5033407;28;20182;-70
2024/01/28 05:17:55;;;;;;;1.33;1.30;;;;;;;3.23;nan;60086.09;5032716;28;20286;-69
2024/01/28 05:20:20;;;;;;;1.40;1.30;;;;;;;3.16;nan;60012.69;5032762;28;20175;-69
2024/01/28 05:22:46;;;;;;;2.80;1.60;;;;;;;3.16;nan;60242.22;5032614;28;20255;-69
2024/01/28 05:25:11;;;;;;;1.50;1.40;;;;;;;3.11;nan;60037.38;5033160;28;20207;-71
2024/01/28 05:27:37;;;;;;;1.20;1.20;;;;;;;3.08;nan;60062.34;5032716;28;20207;-70
2024/01/28 05:30:03;;;;;;;1.30;1.30;;;;;;;2.80;nan;60068.91;5032719;28;20180;-70
2024/01/28 05:32:29;;;;;;;2.80;1.63;;;;;;;2.85;nan;60066.34;5032441;28;20203;-66
2024/01/28 05:35:03;;;;;;;1.10;1.10;;;;;;;2.86;nan;60047.88;5033001;28;20243;-70
2024/01/28 05:37:28;;;;;;;1.20;1.20;;;;;;;3.03;nan;60081.97;4943974;28;20164;-69
2024/01/28 05:39:53;;;;;;;1.20;1.20;;;;;;;2.93;nan;60090.97;5031739;28;20210;-69
2024/01/28 05:42:19;;;;;;;1.20;1.20;;;;;;;3.00;nan;59969.63;5032294;28;20661;-68
2024/01/28 05:44:44;;;;;;;1.47;1.40;;;;;;;2.99;nan;60061.81;5031628;28;20172;-70
2024/01/28 05:47:10;;;;;;;1.50;1.40;;;;;;;3.08;nan;60021.41;5039926;28;20260;-68
2024/01/28 05:49:36;;;;;;;1.20;1.20;;;;;;;2.79;nan;60055.16;5032709;28;20164;-68
2024/01/28 05:52:01;;;;;;;1.30;1.30;;;;;;;3.08;nan;59994.22;5032399;28;20164;-68
2024/01/28 05:54:28;;;;;;;1.67;1.60;;;;;;;3.17;nan;60111.63;5032382;28;20179;-68
2024/01/28 05:56:53;;;;;;;1.27;1.27;;;;;;;3.08;nan;60084.47;5032277;28;20229;-69
2024/01/28 05:59:19;;;;;;;1.57;1.47;;;;;;;2.85;nan;60056.28;5032230;28;20183;-68
2024/01/28 06:01:44;;;;;;;1.10;1.10;;;;;;;3.07;nan;60080.81;5034799;28;20202;-72
2024/01/28 06:04:10;;;;;;;1.07;1.07;;;;;;;3.09;nan;60018.06;5030430;28;20579;-70
2024/01/28 06:06:35;;;;;;;1.40;1.30;;;;;;;3.04;nan;60004.91;5031174;28;20599;-70
2024/01/28 06:09:01;;;;;;;1.10;1.10;;;;;;;2.89;nan;60058.22;5031755;28;20309;-70
2024/01/28 06:11:27;;;;;;;1.70;1.60;;;;;;;2.82;nan;60075.63;5031976;28;20638;-68
2024/01/28 06:13:53;;;;;;;1.23;1.23;;;;;;;3.07;nan;59987.50;5031997;28;20176;-71
2024/01/28 06:16:18;;;;;;;1.30;1.30;;;;;;;2.77;nan;60057.44;5031936;28;20549;-72
2024/01/28 06:18:44;;;;;;;1.37;1.33;;;;;;;2.90;nan;60019.00;5032035;28;20233;-68
2024/01/28 06:21:13;;;;;;;1.90;1.80;;;;;;;3.17;nan;60096.47;5031564;28;20266;-69
2024/01/28 06:23:40;;;;;;;1.33;1.27;;;;;;;3.17;nan;60018.84;5031302;28;20265;-67
2024/01/28 06:26:06;;;;;;;1.30;1.20;;;;;;;3.08;nan;60018.91;5031222;28;20647;-68
2024/01/28 06:28:32;;;;;;;1.63;1.53;;;;;;;3.37;nan;60106.75;5030821;28;20199;-68
2024/01/28 06:30:57;;;;;;;1.20;1.20;;;;;;;3.19;nan;59988.28;5031053;28;20186;-68
2024/01/28 06:33:23;;;;;;;1.20;1.20;;;;;;;3.57;nan;60035.13;5030503;28;20180;-69
2024/01/28 06:35:49;;;;;;;1.23;1.23;;;;;;;3.28;nan;60104.28;5030257;28;20650;-69
2024/01/28 06:38:14;;;;;;;1.30;1.30;;;;;;;3.67;nan;60083.59;5031247;28;20175;-71
2024/01/28 06:40:40;;;;;;;1.30;1.30;;;;;;;3.97;nan;60185.88;5063564;28;20182;-69
2024/01/28 06:43:05;;;;;;;1.10;1.10;;;;;;;3.81;nan;60180.59;5031719;28;20186;-70
2024/01/28 06:45:30;;;;;;;1.43;1.37;;;;;;;4.23;nan;60355.88;5030347;28;20654;-72
2024/01/28 06:47:56;;;;;;;1.50;1.43;;;;;;;4.04;nan;60087.03;5029407;28;20208;-70
2024/01/28 06:50:22;;;;;;;1.20;1.20;;;;;;;4.43;nan;60074.41;5031955;28;20166;-70
2024/01/28 06:52:50;;;;;;;1.20;1.20;;;;;;;4.32;nan;60229.47;5039315;28;20174;-73
2024/01/28 06:55:17;;;;;;;1.20;1.20;;;;;;;4.71;nan;60186.00;5030882;28;20552;-69
2024/01/28 06:57:42;;;;;;;1.27;1.27;;;;;;;4.50;nan;60220.69;5030658;28;20167;-70
2024/01/28 07:00:11;;;;;;;1.20;1.20;;;;;;;4.95;nan;60131.84;5029710;28;20190;-72
2024/01/28 07:02:37;;;;;;;1.30;1.27;;;;;;;5.03;nan;60272.38;5031038;28;20187;-72
2024/01/28 07:05:03;;;;;;;1.20;1.20;;;;;;;5.04;nan;60134.31;5031234;28;20167;-70
2024/01/28 07:07:28;;;;;;;1.20;1.20;;;;;;;4.72;nan;60285.75;5031125;28;20207;-68
2024/01/28 07:09:53;;;;;;;1.70;1.60;;;;;;;4.87;nan;60188.69;5029725;28;20199;-71
2024/01/28 07:12:19;;;;;;;1.67;1.47;;;;;;;4.82;nan;60233.69;5030703;28;20198;-69
2024/01/28 07:14:44;;;;;;;1.20;1.20;;;;;;;4.91;nan;60180.50;5030543;28;20230;-69
2024/01/28 07:17:10;;;;;;;1.30;1.30;;;;;;;5.31;nan;60164.47;5030302;28;20281;-67
2024/01/28 07:19:35;;;;;;;1.20;1.20;;;;;;;5.05;nan;60173.38;5030304;28;20210;-70
2024/01/28 07:22:01;;;;;;;1.27;1.27;;;;;;;5.28;nan;60196.56;5029599;28;20183;-70
2024/01/28 07:24:26;;;;;;;1.93;1.83;;;;;;;5.41;nan;60346.69;5029214;28;20207;-71
2024/01/28 07:26:52;;;;;;;1.53;1.43;;;;;;;5.45;nan;60224.56;5028714;28;20214;-69
2024/01/28 07:29:17;;;;;;;1.20;1.20;;;;;;;5.45;nan;60318.81;5029483;28;20183;-69
2024/01/28 07:31:43;;;;;;;1.30;1.30;;;;;;;5.51;nan;60241.38;5028731;28;20210;-70
2024/01/28 07:34:08;;;;;;;1.40;1.40;;;;;;;5.60;nan;60347.69;5029872;28;20312;-72
2024/01/28 07:36:34;;;;;;;1.17;1.17;;;;;;;5.61;nan;60225.28;5030588;28;20175;-70
2024/01/28 07:38:59;;;;;;;1.50;1.40;;;;;;;5.41;nan;60334.56;5030463;28;20270;-67
2024/01/28 07:41:26;;;;;;;1.07;1.07;;;;;;;5.37;nan;60337.69;5028940;28;20333;-71
2024/01/28 07:43:51;;;;;;;2.07;1.93;;;;;;;5.74;nan;60315.25;5030486;28;20279;-70
2024/01/28 07:46:18;;;;;;;1.10;1.10;;;;;;;5.65;nan;60327.97;5030212;28;20190;-70
2024/01/28 07:48:43;;;;;;;1.50;1.40;;;;;;;5.67;nan;60494.88;5029751;28;20210;-71
2024/01/28 07:51:09;;;;;;;1.03;1.03;;;;;;;5.50;nan;60273.78;5030676;28;20176;-72
2024/01/28 07:53:37;;;;;;;1.43;1.33;;;;;;;5.85;nan;60274.34;5030704;28;20559;-72
2024/01/28 07:56:02;;;;;;;1.50;1.40;;;;;;;5.58;nan;60317.59;5034396;28;20182;-70
2024/01/28 07:58:28;;;;;;;1.40;1.30;;;;;;;6.02;nan;60290.84;5036818;28;20179;-72
2024/01/28 08:00:55;;;;;;;1.20;1.20;;;;;;;6.07;nan;60521.47;5029311;28;20190;-71
2024/01/28 08:03:21;;;;;;;2.07;1.97;;;;;;;5.98;nan;60318.75;5030402;28;20203;-71
2024/01/28 08:05:47;;;;;;;1.30;1.30;;;;;;;5.87;nan;60213.28;5030394;28;20171;-68
2024/01/28 08:08:12;;;;;;;1.20;1.20;;;;;;;5.98;nan;60407.47;5032679;28;20203;-69
2024/01/28 08:10:38;;;;;;;1.20;1.20;;;;;;;6.20;nan;60280.00;5034662;28;20186;-70
2024/01/28 08:13:04;;;;;;;1.27;1.27;;;;;;;6.00;nan;60379.84;5066655;28;20179;-69
2024/01/28 08:15:29;;;;;;;1.07;1.07;;;;;;;6.10;nan;60304.31;5034004;28;20658;-70
2024/01/28 08:17:56;;;;;;;2.63;1.90;;;;;;;6.08;nan;60560.63;5034166;28;20268;-69
2024/01/28 08:20:21;;;;;;;1.00;1.00;;;;;;;5.87;nan;60350.09;5034481;28;20167;-70
2024/01/28 08:22:47;;;;;;;1.30;1.23;;;;;;;6.18;nan;60334.09;5033384;28;20178;-71
2024/01/28 08:25:12;;;;;;;1.57;1.47;;;;;;;6.30;nan;60422.47;5033326;28;20275;-70
2024/01/28 08:27:38;;;;;;;1.10;1.10;;;;;;;6.37;nan;60298.47;5033001;28;20199;-70
2024/01/28 08:30:06;;;;;;;1.20;1.20;;;;;;;6.03;nan;60266.63;5033526;28;20168;-70
2024/01/28 08:32:32;;;;;;;1.23;1.23;;;;;;;6.13;nan;60353.28;5033479;28;20178;-71
2024/01/28 08:34:57;;;;;;;1.57;1.47;;;;;;;6.50;nan;60338.91;5032253;28;20314;-70
2024/01/28 08:37:23;;;;;;;1.20;1.20;;;;;;;6.62;nan;60336.56;5033928;28;20559;-70
2024/01/28 08:39:48;;;;;;;1.70;1.60;;;;;;;6.45;nan;60221.16;5033823;28;20619;-69
2024/01/28 08:42:15;;;;;;;1.30;1.30;;;;;;;6.48;nan;60356.41;5033588;28;20170;-70
2024/01/28 08:44:40;;;;;;;1.00;1.00;;;;;;;6.47;nan;60426.31;5033794;28;20233;-71
2024/01/28 08:47:06;;;;;;;1.30;1.30;;;;;;;6.71;nan;60460.81;5033121;28;20624;-70
2024/01/28 08:49:32;;;;;;;1.47;1.40;;;;;;;6.78;nan;60386.91;5065647;28;20179;-68
2024/01/28 08:51:57;;;;;;;1.40;1.30;;;;;;;6.79;nan;60624.03;5033483;28;20179;-69
2024/01/28 08:54:24;;;;;;;1.10;1.10;;;;;;;6.72;nan;60375.09;5033243;28;20266;-71
2024/01/28 08:56:50;;;;;;;1.20;1.20;;;;;;;6.66;nan;60409.53;5033165;28;20182;-71
2024/01/28 08:59:16;;;;;;;1.10;1.10;;;;;;;6.64;nan;60445.38;5033376;28;20176;-70
2024/01/28 09:01:42;;;;;;;1.27;1.27;;;;;;;6.69;nan;60329.19;5033323;28;20178;-69
2024/01/28 09:04:07;;;;;;;1.10;1.10;;;;;;;6.89;nan;60480.44;5042626;28;20225;-68
2024/01/28 09:06:33;;;;;;;1.10;1.10;;;;;;;7.35;nan;60493.38;5033495;28;20646;-69
2024/01/28 09:09:00;;;;;;;0.90;0.90;;;;;;;7.13;nan;60367.69;5033614;28;20265;-70
2024/01/28 09:11:25;;;;;;;1.23;1.20;;;;;;;7.47;nan;60405.22;5033607;28;20202;-70
2024/01/28 09:13:51;;;;;;;1.33;1.23;;;;;;;7.39;nan;60365.78;5033100;28;20701;-72
2024/01/28 09:16:16;;;;;;;1.60;1.50;;;;;;;7.13;nan;60489.00;5032924;28;20171;-70
2024/01/28 09:18:42;;;;;;;2.90;1.50;;;;;;;7.27;nan;60685.03;5032310;28;20172;-67
2024/01/28 09:21:09;;;;;;;1.20;1.17;;;;;;;7.22;nan;60494.03;5033737;28;20175;-70
2024/01/28 09:23:35;;;;;;;1.10;1.10;;;;;;;7.31;nan;60339.03;5032775;28;20265;-70
2024/01/28 09:26:01;;;;;;;1.10;1.10;;;;;;;7.66;nan;60411.25;5032711;28;20182;-73
2024/01/28 09:28:26;;;;;;;1.10;1.10;;;;;;;7.71;nan;60441.69;5032729;28;20195;-69
2024/01/28 09:30:52;;;;;;;1.20;1.20;;;;;;;7.84;nan;60443.53;5032582;28;20168;-69
2024/01/28 09:33:17;;;;;;;1.00;1.00;;;;;;;7.99;nan;60664.34;5032655;28;20230;-69
2024/01/28 09:35:44;;;;;;;1.60;1.50;;;;;;;7.83;nan;60439.88;5032212;28;20272;-69
2024/01/28 09:38:09;;;;;;;1.10;1.10;;;;;;;7.60;nan;60572.22;5032495;28;20282;-69
2024/01/28 09:40:35;;;;;;;1.30;1.30;;;;;;;7.81;nan;60478.88;5032583;28;20183;-68
2024/01/28 09:43:07;;;;;;;1.10;1.10;;;;;;;8.25;nan;60517.47;5032576;28;20190;-69
2024/01/28 09:45:33;;;;;;;1.20;1.20;;;;;;;8.12;nan;60597.00;5031991;28;20175;-71
2024/01/28 09:47:59;;;;;;;1.87;1.77;;;;;;;8.23;nan;60489.22;5032360;28;20328;-70
2024/01/28 09:50:25;;;;;;;1.13;1.13;;;;;;;8.25;nan;60471.13;5064457;28;20606;-70
2024/01/28 09:52:50;;;;;;;1.00;1.00;;;;;;;8.38;nan;60572.78;5032312;28;20175;-69
2024/01/28 09:55:16;;;;;;;1.20;1.20;;;;;;;7.85;nan;60584.50;5032222;28;20528;-71
2024/01/28 09:57:41;;;;;;;1.20;1.20;;;;;;;8.02;nan;60547.63;5032037;28;20258;-71
2024/01/28 10:00:07;;;;;;;1.10;1.10;;;;;;;7.91;nan;60443.75;5031966;28;20290;-69
2024/01/28 10:02:35;;;;;;;1.20;1.20;;;;;;;8.06;nan;60473.28;5032001;28;20550;-71
2024/01/28 10:05:01;;;;;;;1.53;1.43;;;;;;;8.03;nan;60456.66;5031885;28;20603;-71
2024/01/28 10:07:27;;;;;;;2.30;2.10;;;;;;;7.89;nan;60424.28;5065718;28;20253;-68
2024/01/28 10:09:52;;;;;;;1.00;1.00;;;;;;;8.04;nan;60554.41;5038153;28;20178;-70
2024/01/28 10:12:18;;;;;;;1.20;1.20;;;;;;;8.17;nan;60615.34;5031694;28;20168;-71
2024/01/28 10:14:52;;;;;;;1.00;1.00;;;;;;;8.48;nan;60496.34;5032185;28;20183;-71
2024/01/28 10:17:21;;;;;;;1.17;1.17;;;;;;;8.22;nan;60559.34;5031897;28;20171;-69
2024/01/28 10:19:46;;;;;;;1.00;1.00;;;;;;;7.92;nan;60610.69;5031842;28;20175;-70
2024/01/28 10:22:12;;;;;;;1.00;1.00;;;;;;;8.07;nan;60698.19;5031930;28;20661;-70
2024/01/28 10:24:41;;;;;;;1.00;1.00;;;;;;;8.37;nan;60581.25;5031471;28;20168;-70
2024/01/28 10:27:07;;;;;;;1.10;1.10;;;;;;;8.26;nan;60736.81;5031534;28;20235;-71
2024/01/28 10:29:32;;;;;;;1.13;1.13;;;;;;;8.28;nan;60579.34;5030520;28;20218;-69
2024/01/28 10:32:01;;;;;;;1.70;1.60;;;;;;;8.35;nan;60627.94;5031256;28;20575;-69
2024/01/28 10:34:26;;;;;;;1.73;1.63;;;;;;;8.22;nan;60626.03;5031620;28;20307;-71
2024/01/28 10:36:54;;;;;;;1.15;1.15;;;;;;;8.42;nan;60592.53;5030103;28;20270;-69
2024/01/28 10:39:22;;;;;;;1.00;1.00;;;;;;;8.40;nan;60488.50;5031151;28;20352;-69
2024/01/28 10:41:55;;;;;;;1.40;1.30;;;;;;;8.21;nan;60438.66;5031070;28;20182;-69
2024/01/28 10:44:21;;;;;;;1.13;1.13;;;;;;;7.98;nan;60650.50;5031596;28;20302;-69
2024/01/28 10:46:53;;;;;;;1.40;1.30;;;;;;;8.11;nan;60463.63;5063320;28;20176;-70
2024/01/28 10:49:26;;;;;;;1.40;1.30;;;;;;;7.86;nan;60540.41;5031386;28;20160;-69
2024/01/28 10:51:54;;;;;;;1.17;1.17;;;;;;;7.52;nan;60487.59;5030752;28;20308;-69
2024/01/28 10:54:20;;;;;;;1.40;1.30;;;;;;;7.68;nan;60421.09;5030990;28;20862;-70
2024/01/28 10:56:46;;;;;;;1.10;1.10;;;;;;;7.70;nan;60425.88;5030887;28;20646;-70
2024/01/28 10:59:12;;;;;;;1.17;1.17;;;;;;;8.05;nan;60456.34;5031149;28;20186;-70
2024/01/28 11:01:38;;;;;;;1.20;1.20;;;;;;;8.19;nan;60497.44;5030840;28;20221;-70
2024/01/28 11:04:05;;;;;;;1.10;1.10;;;;;;;8.32;nan;60520.25;5031070;28;20666;-70
2024/01/28 11:06:31;;;;;;;1.20;1.20;;;;;;;8.26;nan;60594.34;5030543;28;20167;-68
2024/01/28 11:08:57;;;;;;;1.20;1.20;;;;;;;8.27;nan;60605.66;5027945;28;20207;-69
2024/01/28 11:11:23;;;;;;;1.38;1.30;;;;;;;8.16;nan;60517.00;5030454;28;20183;-70
2024/01/28 11:13:49;;;;;;;2.07;1.40;;;;;;;8.46;nan;60519.56;5038043;28;20287;-68
2024/01/28 11:16:15;;;;;;;1.00;1.00;;;;;;;8.10;nan;60556.03;5031824;28;20190;-69
2024/01/28 11:18:52;;;;;;;1.13;1.13;;;;;;;8.19;nan;60573.75;5030774;28;20175;-71
2024/01/28 11:21:19;;;;;;;1.40;1.30;;;;;;;7.85;nan;60557.09;5030393;28;20179;-71
2024/01/28 11:23:47;;;;;;;1.10;1.10;;;;;;;7.42;nan;60384.94;5031083;28;20685;-70
2024/01/28 11:26:19;;;;;;;1.20;1.17;;;;;;;7.44;nan;60523.78;5030957;28;20265;-72
2024/01/28 11:28:49;;;;;;;1.20;1.20;;;;;;;7.78;nan;60531.44;5030949;28;20239;-70
2024/01/28 11:31:31;;;;;;;1.20;1.20;;;;;;;7.94;nan;60475.09;5030903;28;20171;-71
2024/01/28 11:34:17;;;;;;;1.27;1.27;;;;;;;7.99;nan;60466.00;5030402;28;20264;-71
2024/01/28 11:37:04;;;;;;;1.13;1.13;;;;;;;8.21;nan;60565.84;5030851;28;20179;-69
2024/01/28 11:39:32;;;;;;;1.20;1.20;;;;;;;8.33;nan;60569.13;5030740;28;20171;-71
2024/01/28 11:41:57;;;;;;;1.40;1.30;;;;;;;8.35;nan;60502.69;5031454;28;20605;-72
2024/01/28 11:44:23;;;;;;;1.40;1.30;;;;;;;8.21;nan;60624.91;5034980;28;20171;-72
2024/01/28 11:46:50;;;;;;;1.20;1.20;;;;;;;8.50;nan;60531.69;5034796;28;20221;-70
2024/01/28 11:49:16;;;;;;;1.83;1.63;;;;;;;8.47;nan;60558.84;5049875;28;20198;-69
2024/01/28 11:51:41;;;;;;;1.57;1.47;;;;;;;8.07;nan;60567.94;5034897;28;20623;-69
2024/01/28 11:54:07;;;;;;;1.90;1.63;;;;;;;8.21;nan;60583.66;5034677;28;20198;-68